createdAt,value
2018-06-04T00:04:01.869Z,24.08
2018-06-04T00:06:29.258Z,24.06
2018-06-04T00:08:55.605Z,24.08
2018-06-04T00:11:22.191Z,24.04
2018-06-04T00:13:48.553Z,24.03
2018-06-04T00:16:14.944Z,24.01
2018-06-04T00:18:41.366Z,24.03
2018-06-04T00:21:07.752Z,24.01
2018-06-04T00:23:34.166Z,24.01
2018-06-04T00:26:00.556Z,23.98
2018-06-04T00:28:26.992Z,23.98
2018-06-04T00:30:53.365Z,23.99
2018-06-04T00:33:19.730Z,23.97
2018-06-04T00:35:46.157Z,23.99
2018-06-04T00:38:12.522Z,23.97
2018-06-04T00:40:38.946Z,23.95
2018-06-04T00:43:05.326Z,23.92
2018-06-04T00:45:31.677Z,23.94
2018-06-04T00:47:58.044Z,23.94
2018-06-04T00:50:24.524Z,23.91
2018-06-04T00:52:50.983Z,23.89
2018-06-04T00:55:17.372Z,23.88
2018-06-04T00:57:43.792Z,23.88
2018-06-04T01:00:10.148Z,23.88
2018-06-04T01:02:36.487Z,23.87
2018-06-04T01:05:02.871Z,23.80
2018-06-04T01:07:29.303Z,23.70
2018-06-04T01:09:55.720Z,23.67
2018-06-04T01:12:22.092Z,23.64
2018-06-04T01:14:48.416Z,23.55
2018-06-04T01:17:14.840Z,23.43
2018-06-04T01:19:41.161Z,23.43
2018-06-04T01:22:07.496Z,23.35
2018-06-04T01:24:33.884Z,23.39
2018-06-04T01:27:00.318Z,23.34
2018-06-04T01:29:26.727Z,23.27
2018-06-04T01:31:53.110Z,23.26
2018-06-04T01:34:19.493Z,23.24
2018-06-04T01:36:53.265Z,23.22
2018-06-04T01:39:19.625Z,23.22
2018-06-04T01:41:46.042Z,23.25
2018-06-04T01:44:12.411Z,23.26
2018-06-04T01:46:38.783Z,23.21
2018-06-04T01:49:05.155Z,23.20
2018-06-04T01:51:31.468Z,23.21
2018-06-04T01:53:57.806Z,23.18
2018-06-04T01:56:24.133Z,23.18
2018-06-04T01:58:50.454Z,23.18
2018-06-04T02:01:16.784Z,23.15
2018-06-04T02:03:43.113Z,23.17
2018-06-04T02:06:09.464Z,23.15
2018-06-04T02:08:35.808Z,23.15
2018-06-04T02:11:02.165Z,23.11
2018-06-04T02:13:28.481Z,23.08
2018-06-04T02:15:54.895Z,23.08
2018-06-04T02:18:21.212Z,23.06
2018-06-04T02:20:47.582Z,23.02
2018-06-04T02:23:13.937Z,23.01
2018-06-04T02:25:40.296Z,23.03
2018-06-04T02:28:06.620Z,23.00
2018-06-04T02:30:32.945Z,23.00
2018-06-04T02:32:59.286Z,22.98
2018-06-04T02:35:25.664Z,23.00
2018-06-04T02:37:52.037Z,22.97
2018-06-04T02:40:18.423Z,22.97
2018-06-04T02:42:44.743Z,22.96
2018-06-04T02:45:11.072Z,22.95
2018-06-04T02:47:37.443Z,22.96
2018-06-04T02:50:03.840Z,22.94
2018-06-04T02:52:30.162Z,22.96
2018-06-04T02:54:56.508Z,22.92
2018-06-04T02:57:22.827Z,22.94
2018-06-04T02:59:49.164Z,22.87
2018-06-04T03:02:15.522Z,22.86
2018-06-04T03:04:41.933Z,22.92
2018-06-04T03:07:08.254Z,22.84
2018-06-04T03:09:34.613Z,22.83
2018-06-04T03:12:00.941Z,22.84
2018-06-04T03:14:27.316Z,22.90
2018-06-04T03:16:53.647Z,22.84
2018-06-04T03:19:20.012Z,22.90
2018-06-04T03:21:46.340Z,22.91
2018-06-04T03:24:12.704Z,22.91
2018-06-04T03:26:39.064Z,22.88
2018-06-04T03:29:05.428Z,22.88
2018-06-04T03:31:31.741Z,22.90
2018-06-04T03:33:58.072Z,22.90
2018-06-04T03:36:24.379Z,22.91
2018-06-04T03:38:50.696Z,22.90
2018-06-04T03:41:17.070Z,22.91
2018-06-04T03:43:43.411Z,22.87
2018-06-04T03:46:09.748Z,22.85
2018-06-04T03:48:36.084Z,22.91
2018-06-04T03:51:02.436Z,22.88
2018-06-04T03:53:28.753Z,22.86
2018-06-04T03:55:55.172Z,22.91
2018-06-04T03:58:21.501Z,22.90
2018-06-04T04:00:47.821Z,22.96
2018-06-04T04:03:14.208Z,23.03
2018-06-04T04:05:40.524Z,23.09
2018-06-04T04:08:06.863Z,23.12
2018-06-04T04:10:33.220Z,23.12
2018-06-04T04:12:59.559Z,23.13
2018-06-04T04:15:25.955Z,23.14
2018-06-04T04:17:52.264Z,23.22
2018-06-04T04:20:18.695Z,23.20
2018-06-04T04:22:45.021Z,23.23
2018-06-04T04:25:11.387Z,23.27
2018-06-04T04:27:37.780Z,23.31
2018-06-04T04:30:04.098Z,23.32
2018-06-04T04:32:30.460Z,23.42
2018-06-04T04:34:56.786Z,23.38
2018-06-04T04:37:23.105Z,23.42
2018-06-04T04:39:49.464Z,23.37
2018-06-04T04:42:15.786Z,23.36
2018-06-04T04:44:42.097Z,23.37
2018-06-04T04:47:08.454Z,23.40
2018-06-04T04:49:34.787Z,23.44
2018-06-04T04:52:01.104Z,23.49
2018-06-04T04:54:27.470Z,23.47
2018-06-04T04:56:53.789Z,23.50
2018-06-04T04:59:20.176Z,23.56
2018-06-04T05:01:46.515Z,23.54
2018-06-04T05:04:13.092Z,23.59
2018-06-04T05:06:39.502Z,23.62
2018-06-04T05:09:05.962Z,23.65
2018-06-04T05:11:33.038Z,23.68
2018-06-04T05:13:59.428Z,23.71
2018-06-04T05:16:25.752Z,23.79
2018-06-04T05:18:52.174Z,23.84
2018-06-04T05:21:18.553Z,23.89
2018-06-04T05:23:44.897Z,23.95
2018-06-04T05:26:11.293Z,23.94
2018-06-04T05:28:37.676Z,23.97
2018-06-04T05:31:04.074Z,24.02
2018-06-04T05:33:30.686Z,24.09
2018-06-04T05:35:57.111Z,24.15
2018-06-04T05:38:23.530Z,24.11
2018-06-04T05:40:49.902Z,24.14
2018-06-04T05:43:16.724Z,24.18
2018-06-04T05:45:43.155Z,24.18
2018-06-04T05:48:09.548Z,24.24
2018-06-04T05:50:35.952Z,24.21
2018-06-04T05:53:02.358Z,24.27
2018-06-04T05:55:28.796Z,24.30
2018-06-04T05:57:55.278Z,24.25
2018-06-04T06:00:22.517Z,24.34
2018-06-04T06:02:49.575Z,24.42
2018-06-04T06:05:16.094Z,24.41
2018-06-04T06:07:42.531Z,24.42
2018-06-04T06:10:08.997Z,24.50
2018-06-04T06:12:36.874Z,24.49
2018-06-04T06:15:03.437Z,24.48
2018-06-04T06:17:29.868Z,24.61
2018-06-04T06:19:56.504Z,24.57
2018-06-04T06:22:23.031Z,24.60
2018-06-04T06:24:49.564Z,24.73
2018-06-04T06:29:47.465Z,24.72
2018-06-04T06:32:14.308Z,24.73
2018-06-04T06:34:40.845Z,24.77
2018-06-04T06:42:13.545Z,25.12
2018-06-04T06:44:40.266Z,24.94
2018-06-04T06:47:06.751Z,24.93
2018-06-04T06:52:07.094Z,24.94
2018-06-04T06:54:33.716Z,24.97
2018-06-04T06:57:01.035Z,25.02
2018-06-04T06:59:28.052Z,25.01
2018-06-04T07:01:54.962Z,25.09
2018-06-04T07:04:22.020Z,25.08
2018-06-04T07:06:48.845Z,25.20
2018-06-04T07:09:16.193Z,25.20
2018-06-04T07:11:43.258Z,25.25
2018-06-04T07:14:10.541Z,25.29
2018-06-04T07:16:37.180Z,25.33
2018-06-04T07:19:04.147Z,25.32
2018-06-04T07:21:30.948Z,25.38
2018-06-04T07:23:57.553Z,25.38
2018-06-04T07:26:24.182Z,25.34
2018-06-04T07:28:51.185Z,25.40
2018-06-04T07:31:17.594Z,25.43
2018-06-04T07:33:44.004Z,25.47
2018-06-04T07:36:10.429Z,25.49
2018-06-04T07:38:36.858Z,25.42
2018-06-04T07:41:03.303Z,25.38
2018-06-04T07:43:29.806Z,25.39
2018-06-04T07:45:56.187Z,25.40
2018-06-04T07:48:22.867Z,25.47
2018-06-04T07:50:51.237Z,25.53
2018-06-04T07:53:17.682Z,25.46
2018-06-04T07:55:44.386Z,25.57
2018-06-04T07:58:10.813Z,25.59
2018-06-04T08:00:39.254Z,25.62
2018-06-04T08:03:05.938Z,25.59
2018-06-04T08:05:32.387Z,25.61
2018-06-04T08:07:58.797Z,25.67
2018-06-04T08:10:25.427Z,25.62
2018-06-04T08:12:52.009Z,25.64
2018-06-04T08:15:18.452Z,25.64
2018-06-04T08:17:45.068Z,25.60
2018-06-04T08:20:11.761Z,25.66
2018-06-04T08:25:00.060Z,25.62
2018-06-04T08:27:26.495Z,25.53
2018-06-04T08:29:53.523Z,25.63
2018-06-04T08:32:20.085Z,25.60
2018-06-04T08:34:46.478Z,25.81
2018-06-04T08:37:13.009Z,25.80
2018-06-04T08:39:39.454Z,25.73
2018-06-04T08:42:05.828Z,25.75
2018-06-04T08:44:32.245Z,25.72
2018-06-04T08:46:58.662Z,25.75
2018-06-04T08:49:25.292Z,25.68
2018-06-04T08:51:51.764Z,25.58
2018-06-04T08:54:19.011Z,25.61
2018-06-04T08:56:45.678Z,25.60
2018-06-04T08:59:12.259Z,25.68
2018-06-04T09:01:38.784Z,25.52
2018-06-04T09:04:05.277Z,25.49
2018-06-04T09:06:32.277Z,25.51
2018-06-04T09:08:58.650Z,25.49
2018-06-04T09:11:25.292Z,25.56
2018-06-04T09:13:51.927Z,25.45
2018-06-04T09:16:18.387Z,25.47
2018-06-04T09:18:44.798Z,25.35
2018-06-04T09:21:11.262Z,25.35
2018-06-04T09:23:37.660Z,25.40
2018-06-04T09:26:04.126Z,25.53
2018-06-04T09:28:30.563Z,25.57
2018-06-04T09:30:57.076Z,25.43
2018-06-04T09:33:23.510Z,25.35
2018-06-04T09:35:49.971Z,25.43
2018-06-04T09:38:16.539Z,25.36
2018-06-04T09:40:43.013Z,25.32
2018-06-04T09:43:09.428Z,25.43
2018-06-04T09:45:35.871Z,25.43
2018-06-04T09:48:02.303Z,25.61
2018-06-04T09:50:28.697Z,25.62
2018-06-04T09:52:55.423Z,25.63
2018-06-04T09:55:21.882Z,26.23
2018-06-04T09:57:48.270Z,25.75
2018-06-04T10:00:14.688Z,25.71
2018-06-04T10:02:41.299Z,25.77
2018-06-04T10:05:07.926Z,25.78
2018-06-04T10:07:34.393Z,25.88
2018-06-04T10:10:00.855Z,25.86
2018-06-04T10:12:27.411Z,25.86
2018-06-04T10:14:53.871Z,25.89
2018-06-04T10:17:20.393Z,25.91
2018-06-04T10:19:47.110Z,25.92
2018-06-04T10:22:13.736Z,25.87
2018-06-04T10:24:40.182Z,25.83
2018-06-04T10:27:06.604Z,25.86
2018-06-04T10:29:32.987Z,25.72
2018-06-04T10:31:59.440Z,25.77
2018-06-04T10:34:25.921Z,25.76
2018-06-04T10:36:54.693Z,25.76
2018-06-04T10:39:21.141Z,25.71
2018-06-04T10:41:47.525Z,25.88
2018-06-04T10:44:14.707Z,25.82
2018-06-04T10:46:41.144Z,25.87
2018-06-04T10:49:07.532Z,25.87
2018-06-04T10:51:34.017Z,25.78
2018-06-04T10:54:00.471Z,25.80
2018-06-04T10:56:26.960Z,25.71
2018-06-04T10:58:58.919Z,25.78
2018-06-04T11:01:26.561Z,25.81
2018-06-04T11:06:32.475Z,25.77
2018-06-04T11:08:59.071Z,25.71
2018-06-04T11:11:25.596Z,25.80
2018-06-04T11:13:52.155Z,25.77
2018-06-04T11:16:19.494Z,25.79
2018-06-04T11:18:46.009Z,25.68
2018-06-04T11:21:12.480Z,25.73
2018-06-04T11:23:38.977Z,25.75
2018-06-04T11:26:05.643Z,25.83
2018-06-04T11:28:32.038Z,25.76
2018-06-04T11:30:58.418Z,25.75
2018-06-04T11:33:24.848Z,25.84
2018-06-04T11:35:51.256Z,25.79
2018-06-04T11:38:17.668Z,25.81
2018-06-04T11:40:44.172Z,25.80
2018-06-04T11:43:10.689Z,25.74
2018-06-04T11:45:37.140Z,25.81
2018-06-04T11:48:03.533Z,25.77
2018-06-04T11:50:29.948Z,25.74
2018-06-04T11:52:56.314Z,25.79
2018-06-04T11:55:22.741Z,25.78
2018-06-04T11:57:49.350Z,25.82
2018-06-04T12:00:16.097Z,25.84
2018-06-04T12:02:42.498Z,25.80
2018-06-04T12:05:09.187Z,25.74
2018-06-04T12:07:36.076Z,25.74
2018-06-04T12:10:02.453Z,25.65
2018-06-04T12:12:28.904Z,25.72
2018-06-04T12:14:55.436Z,25.73
2018-06-04T12:17:21.865Z,25.67
2018-06-04T12:19:48.343Z,25.72
2018-06-04T12:22:14.909Z,25.72
2018-06-04T12:24:41.306Z,25.68
2018-06-04T12:27:07.685Z,25.62
2018-06-04T12:29:34.066Z,25.66
2018-06-04T12:32:00.494Z,25.67
2018-06-04T12:34:26.894Z,25.67
2018-06-04T12:36:53.464Z,25.63
2018-06-04T12:39:19.884Z,25.62
2018-06-04T12:41:46.237Z,25.64
2018-06-04T12:44:12.818Z,25.72
2018-06-04T12:46:39.195Z,25.71
2018-06-04T12:49:05.869Z,25.79
2018-06-04T12:51:32.493Z,25.73
2018-06-04T12:53:59.017Z,25.71
2018-06-04T12:56:25.690Z,25.65
2018-06-04T12:58:52.189Z,25.76
2018-06-04T13:01:18.589Z,25.75
2018-06-04T13:06:18.252Z,25.77
2018-06-04T13:08:44.676Z,25.67
2018-06-04T13:11:11.040Z,25.79
2018-06-04T13:13:37.430Z,25.79
2018-06-04T13:16:03.813Z,25.75
2018-06-04T13:18:30.209Z,25.77
2018-06-04T13:20:56.608Z,25.82
2018-06-04T13:23:23.064Z,25.80
2018-06-04T13:25:49.756Z,25.84
2018-06-04T13:28:16.391Z,25.77
2018-06-04T13:30:42.856Z,25.88
2018-06-04T13:33:09.438Z,25.84
2018-06-04T13:35:35.800Z,25.87
2018-06-04T13:38:02.330Z,25.86
2018-06-04T13:40:28.723Z,25.90
2018-06-04T13:42:55.185Z,25.91
2018-06-04T13:45:21.701Z,25.90
2018-06-04T13:47:48.155Z,25.79
2018-06-04T13:50:14.580Z,25.81
2018-06-04T13:52:41.090Z,25.94
2018-06-04T13:55:07.767Z,25.89
2018-06-04T13:57:34.166Z,25.86
2018-06-04T14:00:00.547Z,25.83
2018-06-04T14:02:27.002Z,25.84
2018-06-04T14:04:53.376Z,25.87
2018-06-04T14:07:19.776Z,25.87
2018-06-04T14:09:46.246Z,25.84
2018-06-04T14:12:12.635Z,25.90
2018-06-04T14:14:38.977Z,25.81
2018-06-04T14:17:05.423Z,26.01
2018-06-04T14:19:31.771Z,25.99
2018-06-04T14:21:58.211Z,25.99
2018-06-04T14:24:24.648Z,26.03
2018-06-04T14:26:51.244Z,25.88
2018-06-04T14:29:17.613Z,25.87
2018-06-04T14:31:44.131Z,25.82
2018-06-04T14:34:10.491Z,25.81
2018-06-04T14:36:36.840Z,25.75
2018-06-04T14:39:03.217Z,25.76
2018-06-04T14:41:29.569Z,25.79
2018-06-04T14:43:55.963Z,25.73
2018-06-04T14:46:22.388Z,25.69
2018-06-04T14:48:48.762Z,25.77
2018-06-04T14:51:15.265Z,25.68
2018-06-04T14:53:41.765Z,25.74
2018-06-04T14:56:08.270Z,25.69
2018-06-04T14:58:34.688Z,25.71
2018-06-04T15:01:01.083Z,25.73
2018-06-04T15:03:27.586Z,25.68
2018-06-04T15:05:54.009Z,25.61
2018-06-04T15:08:20.361Z,25.64
2018-06-04T15:10:46.771Z,25.62
2018-06-04T15:13:13.307Z,25.60
2018-06-04T15:15:39.707Z,25.59
2018-06-04T15:18:06.049Z,25.62
2018-06-04T15:23:04.832Z,25.57
2018-06-04T15:25:32.261Z,25.62
2018-06-04T15:27:58.706Z,25.60
2018-06-04T15:30:25.229Z,25.53
2018-06-04T15:32:51.618Z,25.54
2018-06-04T15:35:17.992Z,25.50
2018-06-04T15:37:44.399Z,25.51
2018-06-04T15:40:10.727Z,25.50
2018-06-04T15:42:37.115Z,25.50
2018-06-04T15:45:03.548Z,25.48
2018-06-04T15:47:29.965Z,25.51
2018-06-04T15:49:56.296Z,25.45
2018-06-04T15:52:22.633Z,25.37
2018-06-04T15:54:48.997Z,25.31
2018-06-04T15:57:15.369Z,25.33
2018-06-04T15:59:41.706Z,25.38
2018-06-04T16:02:08.032Z,25.38
2018-06-04T16:04:34.387Z,25.35
2018-06-04T16:07:00.804Z,25.38
2018-06-04T16:09:27.244Z,25.37
2018-06-04T16:11:53.616Z,25.36
2018-06-04T16:14:19.996Z,25.33
2018-06-04T16:16:46.351Z,25.33
2018-06-04T16:19:12.700Z,25.25
2018-06-04T16:21:39.093Z,25.28
2018-06-04T16:24:05.421Z,25.25
2018-06-04T16:26:31.824Z,25.24
2018-06-04T16:28:58.249Z,25.23
2018-06-04T16:31:24.647Z,25.22
2018-06-04T16:33:51.015Z,25.16
2018-06-04T16:36:17.335Z,25.13
2018-06-04T16:38:43.739Z,25.12
2018-06-04T16:41:10.091Z,25.16
2018-06-04T16:43:36.429Z,25.13
2018-06-04T16:46:02.760Z,25.09
2018-06-04T16:48:29.082Z,25.08
2018-06-04T16:50:55.514Z,24.95
2018-06-04T16:53:21.904Z,24.97
2018-06-04T16:55:48.328Z,25.00
2018-06-04T16:58:14.672Z,25.04
2018-06-04T17:00:41.064Z,24.93
2018-06-04T17:03:07.415Z,25.01
2018-06-04T17:05:33.742Z,25.04
2018-06-04T17:08:00.171Z,25.10
2018-06-04T17:10:26.495Z,25.20
2018-06-04T17:12:52.950Z,25.19
2018-06-04T17:15:19.306Z,25.25
2018-06-04T17:17:45.702Z,25.29
2018-06-04T17:20:12.032Z,25.30
2018-06-04T17:22:38.462Z,25.32
2018-06-04T17:25:04.921Z,25.35
2018-06-04T17:27:31.267Z,25.38
2018-06-04T17:29:57.756Z,25.39
2018-06-04T17:32:24.136Z,25.42
2018-06-04T17:34:50.507Z,25.43
2018-06-04T17:37:16.841Z,25.43
2018-06-04T17:39:43.167Z,25.38
2018-06-04T17:42:09.536Z,25.42
2018-06-04T17:44:35.905Z,25.46
2018-06-04T17:47:02.220Z,25.47
2018-06-04T17:49:28.737Z,25.43
2018-06-04T17:51:55.238Z,25.44
2018-06-04T17:54:21.661Z,25.46
2018-06-04T17:56:48.128Z,25.39
2018-06-04T17:59:14.483Z,25.43
2018-06-04T18:01:40.916Z,25.42
2018-06-04T18:04:07.364Z,25.42
2018-06-04T18:06:33.688Z,25.38
2018-06-04T18:09:00.036Z,25.37
2018-06-04T18:11:26.387Z,25.42
2018-06-04T18:13:52.728Z,25.37
2018-06-04T18:16:19.090Z,25.31
2018-06-04T18:18:45.426Z,25.34
2018-06-04T18:21:11.956Z,25.31
2018-06-04T18:23:38.334Z,25.29
2018-06-04T18:26:04.664Z,25.29
2018-06-04T18:28:31.038Z,25.32
2018-06-04T18:30:57.480Z,25.29
2018-06-04T18:33:23.851Z,25.36
2018-06-04T18:35:50.176Z,25.38
2018-06-04T18:38:16.650Z,25.33
2018-06-04T18:40:42.999Z,25.35
2018-06-04T18:43:09.432Z,25.33
2018-06-04T18:45:35.814Z,25.34
2018-06-04T18:48:02.149Z,25.29
2018-06-04T18:50:28.636Z,25.34
2018-06-04T18:52:55.023Z,25.25
2018-06-04T18:55:21.417Z,25.17
2018-06-04T18:57:47.779Z,25.13
2018-06-04T19:00:14.188Z,25.20
2018-06-04T19:02:40.614Z,25.18
2018-06-04T19:05:07.021Z,25.18
2018-06-04T19:07:33.396Z,25.16
2018-06-04T19:09:59.867Z,25.19
2018-06-04T19:12:26.272Z,25.18
2018-06-04T19:14:52.647Z,25.13
2018-06-04T19:17:19.001Z,25.14
2018-06-04T19:19:45.337Z,25.17
2018-06-04T19:22:11.677Z,25.20
2018-06-04T19:24:38.068Z,25.15
2018-06-04T19:27:04.399Z,25.19
2018-06-04T19:29:31.736Z,25.15
2018-06-04T19:31:58.192Z,25.04
2018-06-04T19:34:24.672Z,25.09
2018-06-04T19:36:51.035Z,25.09
2018-06-04T19:39:17.523Z,25.00
2018-06-04T19:41:43.831Z,25.07
2018-06-04T19:44:10.270Z,25.10
2018-06-04T19:46:36.644Z,25.14
2018-06-04T19:49:02.974Z,24.91
2018-06-04T19:51:29.328Z,24.76
2018-06-04T19:53:55.650Z,24.65
2018-06-04T19:56:22.047Z,24.69
2018-06-04T19:58:48.471Z,24.77
2018-06-04T20:01:14.828Z,24.95
2018-06-04T20:03:41.195Z,25.02
2018-06-04T20:06:07.537Z,24.86
2018-06-04T20:08:33.880Z,24.62
2018-06-04T20:11:00.283Z,24.55
2018-06-04T20:13:26.624Z,24.71
2018-06-04T20:15:52.954Z,24.86
2018-06-04T20:18:19.315Z,24.76
2018-06-04T20:20:45.650Z,24.94
2018-06-04T20:23:12.074Z,25.00
2018-06-04T20:25:38.446Z,25.01
2018-06-04T20:28:04.792Z,25.06
2018-06-04T20:30:31.216Z,25.05
2018-06-04T20:32:57.548Z,25.03
2018-06-04T20:35:23.869Z,25.02
2018-06-04T20:37:50.304Z,25.04
2018-06-04T20:40:16.627Z,25.03
2018-06-04T20:42:42.957Z,25.06
2018-06-04T20:45:09.289Z,25.04
2018-06-04T20:47:35.703Z,25.02
2018-06-04T20:50:02.056Z,24.99
2018-06-04T20:52:28.435Z,25.00
2018-06-04T20:54:54.810Z,25.02
2018-06-04T20:57:21.192Z,24.99
2018-06-04T20:59:47.553Z,25.00
2018-06-04T21:02:13.884Z,24.97
2018-06-04T21:04:40.483Z,24.93
2018-06-04T21:07:06.813Z,24.92
2018-06-04T21:09:33.133Z,24.92
2018-06-04T21:11:59.495Z,24.95
2018-06-04T21:14:25.880Z,24.95
2018-06-04T21:16:52.251Z,24.90
2018-06-04T21:19:18.615Z,24.88
2018-06-04T21:21:44.966Z,24.86
2018-06-04T21:24:11.341Z,24.87
2018-06-04T21:26:37.673Z,24.89
2018-06-04T21:29:04.144Z,24.86
2018-06-04T21:31:30.561Z,24.82
2018-06-04T21:33:56.946Z,24.85
2018-06-04T21:36:23.285Z,24.80
2018-06-04T21:38:49.705Z,24.80
2018-06-04T21:41:16.072Z,24.83
2018-06-04T21:43:42.450Z,24.82
2018-06-04T21:46:08.880Z,24.79
2018-06-04T21:48:35.242Z,24.79
2018-06-04T21:51:01.812Z,24.74
2018-06-04T21:53:28.162Z,24.75
2018-06-04T21:55:54.519Z,24.76
2018-06-04T21:58:20.997Z,24.73
2018-06-04T22:00:47.380Z,24.73
2018-06-04T22:03:13.774Z,24.74
2018-06-04T22:05:40.127Z,24.71
2018-06-04T22:08:06.508Z,24.69
2018-06-04T22:10:32.843Z,24.69
2018-06-04T22:12:59.230Z,24.70
2018-06-04T22:15:25.630Z,24.70
2018-06-04T22:17:52.009Z,24.66
2018-06-04T22:20:18.363Z,24.63
2018-06-04T22:22:44.713Z,24.63
2018-06-04T22:25:11.143Z,24.62
2018-06-04T22:27:37.508Z,24.62
2018-06-04T22:30:03.902Z,24.62
2018-06-04T22:32:30.279Z,24.59
2018-06-04T22:34:56.614Z,24.59
2018-06-04T22:37:22.977Z,24.57
2018-06-04T22:39:49.465Z,24.57
2018-06-04T22:42:15.801Z,24.55
2018-06-04T22:44:42.185Z,24.54
2018-06-04T22:47:08.552Z,24.50
2018-06-04T22:49:35.046Z,24.50
2018-06-04T22:52:01.415Z,24.53
2018-06-04T22:54:28.560Z,24.50
2018-06-04T22:56:55.017Z,24.50
2018-06-04T22:59:21.339Z,24.48
2018-06-04T23:01:47.726Z,24.46
2018-06-04T23:04:14.220Z,24.44
2018-06-04T23:06:40.601Z,24.43
2018-06-04T23:09:06.917Z,24.44
2018-06-04T23:11:33.276Z,24.41
2018-06-04T23:13:59.622Z,24.42
2018-06-04T23:16:26.044Z,24.39
2018-06-04T23:18:52.425Z,24.39
2018-06-04T23:21:18.897Z,24.38
2018-06-04T23:23:45.223Z,24.38
2018-06-04T23:26:11.551Z,24.36
2018-06-04T23:28:37.935Z,24.35
2018-06-04T23:31:04.264Z,24.32
2018-06-04T23:33:30.818Z,24.32
2018-06-04T23:35:57.188Z,24.33
2018-06-04T23:38:23.507Z,24.30
2018-06-04T23:40:49.879Z,24.30
2018-06-04T23:43:16.214Z,24.30
2018-06-04T23:45:42.566Z,24.26
2018-06-04T23:48:08.940Z,24.26
2018-06-04T23:50:35.266Z,24.25
2018-06-04T23:53:01.641Z,24.25
2018-06-04T23:55:27.974Z,24.23
2018-06-04T23:57:54.522Z,24.23
